メインページ
METAR-TAF:

METAR-TAF

空港 :

アーバーダーン空港

アーバーダーン, イラン

緯度: 30-22N, 経度: 048-15E, 海抜: 3m

現時点の気象観測

当レポートは28分前の17:00(UTC)に作成
北西の風 10kt
気温 34°C
湿度 28%
気圧 1009 hPa
視程10km以上
1,500メートル以下は雲なし、積乱雲なし

METAR: OIAA 261700Z 32010KT CAVOK 34/13 Q1009

時間: 21:58 (17:28 UTC)

予報

当レポートは6時間28分前の11:00(UTC)に作成
予報は26日の 12時(UTC)から 27日の 18時(UTC)まで有効
北西の風 14kt
視程: 7000m
26日の 12時(UTC)から 26日の 18時(UTC)まで一時的に
北西の風 18kt
確率 40%
26日の 12時(UTC)から 26日の 16時(UTC)まで
北西の風 20kt
視程: 4000m
27日の 06時(UTC)から 27日の 18時(UTC)まで一時的に
北西の風 18kt
確率 40%
27日の 08時(UTC)から 27日の 16時(UTC)まで
北西の風 20kt
視程: 4000m

TAF: OIAA 261100Z 2612/2718 32014KT 7000 NSC TEMPO 2612/2618 32018KT PROB40 2612/2616 32020KT 4000 SA TEMPO 2706/2718 32018KT PROB40 2708/2716 32020KT 4000 SA

4,000以上の空港の気象観測と天気予報(METAR報とTAF報)

利用可能な観測所は地図上に黄色い丸と赤い丸で示す。

丸の上にカーソルを重ねると観測所名を参照できる。

次にクリックすると気象観測と天気予報を参照できる。

マップの切り替え:黒色「×」印の緑ボタンをクリックして拡大、「-」印の緑ボタンをクリックして縮小、緑色の三角印をクリックして隣りの地図に切り替え


METAR-TAF: